createdAt,value
2022-10-02T00:00:01.903Z,55.80
2022-10-02T00:02:45.744Z,52.33
2022-10-02T00:05:41.361Z,51.63
2022-10-02T00:08:38.071Z,58.95
2022-10-02T00:11:28.413Z,47.42
2022-10-02T00:14:04.598Z,46.38
2022-10-02T00:16:43.724Z,45.55
2022-10-02T00:19:16.869Z,53.35
2022-10-02T00:21:51.448Z,56.08
2022-10-02T00:24:28.426Z,54.85
2022-10-02T00:27:32.119Z,52.72
2022-10-02T00:30:03.738Z,66.32
2022-10-02T00:32:38.050Z,53.65
2022-10-02T00:35:31.833Z,57.55
2022-10-02T00:38:12.982Z,40.65
2022-10-02T00:41:23.550Z,50.10
2022-10-02T00:44:14.036Z,52.88
2022-10-02T00:46:58.997Z,44.22
2022-10-02T00:50:09.379Z,50.90
2022-10-02T00:52:42.728Z,44.85
2022-10-02T00:55:21.770Z,45.25
2022-10-02T00:58:04.966Z,46.35
2022-10-02T01:00:34.146Z,55.88
2022-10-02T01:03:17.523Z,54.35
2022-10-02T01:05:47.626Z,50.75
2022-10-02T01:08:19.245Z,59.97
2022-10-02T01:10:49.373Z,60.67
2022-10-02T01:13:18.664Z,46.92
2022-10-02T01:15:54.692Z,57.33
2022-10-02T01:18:24.214Z,56.03
2022-10-02T01:20:59.681Z,59.30
2022-10-02T01:23:38.011Z,50.97
2022-10-02T01:26:08.983Z,53.33
2022-10-02T01:28:38.591Z,46.90
2022-10-02T01:31:11.726Z,58.67
2022-10-02T01:33:42.575Z,57.00
2022-10-02T01:36:14.027Z,54.38
2022-10-02T01:38:44.419Z,61.50
2022-10-02T01:41:16.108Z,68.85
2022-10-02T01:43:54.994Z,66.03
2022-10-02T01:46:43.805Z,64.72
2022-10-02T01:49:47.938Z,78.60
2022-10-02T01:53:03.052Z,64.03
2022-10-02T01:55:57.666Z,58.42
2022-10-02T01:58:51.122Z,65.40
2022-10-02T02:01:26.774Z,70.43
2022-10-02T02:04:20.905Z,64.03
2022-10-02T02:07:26.974Z,72.45
2022-10-02T02:10:18.921Z,78.72
2022-10-02T02:12:57.497Z,95.17
2022-10-02T02:15:47.586Z,80.18
2022-10-02T02:18:25.225Z,69.18
2022-10-02T02:21:00.130Z,90.78
2022-10-02T02:23:33.779Z,86.30
2022-10-02T02:26:09.651Z,71.55
2022-10-02T02:28:45.226Z,85.28
2022-10-02T02:31:20.359Z,91.07
2022-10-02T02:34:02.239Z,68.60
2022-10-02T02:36:38.137Z,60.63
2022-10-02T02:39:16.706Z,75.07
2022-10-02T02:41:51.309Z,69.38
2022-10-02T02:44:38.201Z,78.85
2022-10-02T02:47:14.292Z,66.15
2022-10-02T02:49:54.948Z,72.05
2022-10-02T02:52:31.558Z,63.33
2022-10-02T02:55:32.363Z,75.55
2022-10-02T02:58:20.515Z,78.35
2022-10-02T03:00:49.731Z,62.47
2022-10-02T03:03:19.002Z,74.07
2022-10-02T03:05:54.506Z,56.92
2022-10-02T03:08:33.316Z,55.33
2022-10-02T03:11:14.619Z,53.30
2022-10-02T03:14:02.538Z,54.33
2022-10-02T03:16:58.185Z,55.92
2022-10-02T03:19:52.059Z,62.20
2022-10-02T03:22:37.406Z,46.13
2022-10-02T03:25:15.702Z,59.47
2022-10-02T03:28:43.360Z,62.47
2022-10-02T03:31:14.395Z,60.60
2022-10-02T03:33:45.638Z,52.07
2022-10-02T03:36:19.090Z,54.83
2022-10-02T03:39:00.665Z,49.75
2022-10-02T03:41:35.963Z,57.85
2022-10-02T03:44:05.117Z,44.58
2022-10-02T03:46:34.441Z,49.47
2022-10-02T03:49:04.499Z,51.08
2022-10-02T03:51:33.546Z,56.60
2022-10-02T03:54:02.574Z,50.40
2022-10-02T03:56:53.043Z,44.53
2022-10-02T03:59:34.442Z,45.83
2022-10-02T04:02:08.121Z,48.28
2022-10-02T04:05:03.518Z,46.80
2022-10-02T04:07:41.422Z,35.47
2022-10-02T04:11:04.461Z,51.88
2022-10-02T04:13:52.039Z,56.20
2022-10-02T04:16:41.584Z,46.20
2022-10-02T04:19:19.980Z,43.67
2022-10-02T04:21:57.726Z,49.28
2022-10-02T04:24:45.998Z,57.60
2022-10-02T04:27:40.086Z,53.97
2022-10-02T04:30:16.121Z,53.05
2022-10-02T04:32:46.333Z,72.55
2022-10-02T04:35:27.898Z,49.38
2022-10-02T04:38:41.239Z,51.92
2022-10-02T04:44:14.877Z,51.67
2022-10-02T04:46:56.905Z,43.17
2022-10-02T04:49:37.534Z,44.72
2022-10-02T04:52:25.260Z,41.78
2022-10-02T04:55:15.708Z,33.47
2022-10-02T05:00:34.042Z,43.03
2022-10-02T05:03:23.705Z,45.83
2022-10-02T05:06:08.682Z,32.65
2022-10-02T05:08:40.824Z,32.13
2022-10-02T05:11:32.004Z,36.40
2022-10-02T05:14:12.672Z,30.75
2022-10-02T05:17:23.467Z,21.60
2022-10-02T05:20:40.769Z,22.60
2022-10-02T05:23:40.061Z,37.88
2022-10-02T05:26:29.608Z,23.33
2022-10-02T05:29:19.684Z,47.30
2022-10-02T05:31:56.759Z,69.43
2022-10-02T05:35:00.216Z,27.55
2022-10-02T05:37:50.314Z,87.63
2022-10-02T05:40:35.243Z,36.42
2022-10-02T05:43:13.661Z,25.35
2022-10-02T05:45:51.549Z,45.55
2022-10-02T05:48:23.316Z,44.00
2022-10-02T05:51:00.651Z,75.55
2022-10-02T05:53:37.996Z,50.42
2022-10-02T05:56:32.283Z,86.65
2022-10-02T05:59:30.488Z,61.17
2022-10-02T06:02:04.064Z,63.38
2022-10-02T06:04:41.060Z,19.92
2022-10-02T06:07:16.975Z,38.83
2022-10-02T06:10:02.136Z,49.90
2022-10-02T06:12:42.923Z,36.50
2022-10-02T06:15:28.066Z,32.22
2022-10-02T06:18:06.470Z,23.98
2022-10-02T06:20:47.864Z,46.95
2022-10-02T06:23:26.210Z,31.42
2022-10-02T06:26:11.654Z,28.50
2022-10-02T06:28:55.357Z,31.83
2022-10-02T06:31:42.145Z,31.02
2022-10-02T06:34:14.283Z,29.63
2022-10-02T06:39:30.780Z,56.30
2022-10-02T06:42:25.518Z,26.40
2022-10-02T06:45:01.306Z,32.10
2022-10-02T06:47:39.762Z,34.90
2022-10-02T06:50:28.490Z,29.63
2022-10-02T06:53:08.244Z,22.55
2022-10-02T06:56:14.716Z,22.70
2022-10-02T06:58:49.276Z,31.70
2022-10-02T07:01:38.201Z,32.30
2022-10-02T07:04:35.572Z,64.35
2022-10-02T07:07:18.980Z,20.85
2022-10-02T07:09:53.731Z,22.25
2022-10-02T07:13:19.261Z,33.92
2022-10-02T07:16:08.874Z,18.58
2022-10-02T07:18:55.998Z,21.20
2022-10-02T07:21:37.581Z,19.08
2022-10-02T07:24:15.382Z,24.27
2022-10-02T07:27:13.767Z,28.40
2022-10-02T07:30:03.309Z,25.08
2022-10-02T07:32:48.905Z,33.30
2022-10-02T07:35:49.334Z,38.60
2022-10-02T07:38:44.258Z,21.70
2022-10-02T07:41:37.501Z,27.83
2022-10-02T07:44:21.919Z,21.38
2022-10-02T07:47:09.057Z,33.30
2022-10-02T07:50:06.150Z,19.05
2022-10-02T07:52:59.152Z,15.43
2022-10-02T07:55:28.994Z,13.25
2022-10-02T07:58:11.142Z,20.90
2022-10-02T08:01:04.580Z,38.83
2022-10-02T08:03:40.053Z,16.08
2022-10-02T08:06:09.990Z,22.20
2022-10-02T08:09:08.074Z,35.30
2022-10-02T08:11:49.359Z,24.75
2022-10-02T08:14:44.107Z,12.43
2022-10-02T08:17:23.004Z,30.60
2022-10-02T08:19:53.620Z,23.08
2022-10-02T08:22:39.379Z,29.13
2022-10-02T08:25:17.567Z,19.80
2022-10-02T08:28:10.197Z,24.55
2022-10-02T08:30:39.357Z,22.80
2022-10-02T08:33:20.999Z,12.18
2022-10-02T08:36:10.957Z,23.65
2022-10-02T08:39:17.914Z,6.80
2022-10-02T08:42:24.581Z,11.98
2022-10-02T08:45:36.757Z,20.02
2022-10-02T08:48:29.755Z,15.25
2022-10-02T08:51:35.617Z,32.70
2022-10-02T08:54:29.606Z,13.45
2022-10-02T08:57:13.595Z,9.43
2022-10-02T08:59:54.197Z,18.27
2022-10-02T09:02:40.922Z,18.67
2022-10-02T09:05:31.090Z,16.65
2022-10-02T09:08:15.147Z,7.35
2022-10-02T09:10:53.701Z,22.70
2022-10-02T09:13:50.605Z,52.03
2022-10-02T09:16:35.323Z,14.65
2022-10-02T09:19:43.052Z,110.65
2022-10-02T09:22:33.699Z,11.95
2022-10-02T09:25:38.520Z,14.35
2022-10-02T09:28:41.400Z,23.48
2022-10-02T09:31:31.326Z,17.40
2022-10-02T09:34:06.510Z,11.50
2022-10-02T09:37:12.078Z,17.02
2022-10-02T09:40:07.167Z,15.52
2022-10-02T09:43:03.219Z,35.25
2022-10-02T09:45:46.976Z,9.95
2022-10-02T09:48:46.451Z,25.42
2022-10-02T09:51:46.155Z,15.80
2022-10-02T09:54:33.354Z,28.60
2022-10-02T09:57:12.652Z,20.30
2022-10-02T10:00:18.214Z,22.70
2022-10-02T10:03:19.518Z,28.52
2022-10-02T10:06:20.451Z,99.55
2022-10-02T10:09:12.344Z,24.73
2022-10-02T10:11:48.968Z,24.50
2022-10-02T10:14:24.868Z,20.92
2022-10-02T10:17:57.014Z,19.05
2022-10-02T10:20:52.962Z,37.55
2022-10-02T10:23:52.195Z,93.82
2022-10-02T10:26:45.101Z,26.13
2022-10-02T10:29:23.009Z,16.40
2022-10-02T10:32:32.224Z,109.82
2022-10-02T10:35:21.175Z,25.40
2022-10-02T10:38:27.224Z,31.20
2022-10-02T10:41:14.603Z,22.95
2022-10-02T10:44:05.145Z,65.25
2022-10-02T10:46:57.333Z,19.88
2022-10-02T10:49:56.215Z,48.30
2022-10-02T10:52:56.044Z,23.85
2022-10-02T10:55:53.830Z,32.45
2022-10-02T10:58:35.858Z,37.65
2022-10-02T11:01:43.912Z,24.80
2022-10-02T11:04:44.802Z,50.65
2022-10-02T11:07:47.314Z,20.10
2022-10-02T11:10:48.053Z,14.43
2022-10-02T11:13:35.457Z,33.28
2022-10-02T11:16:23.777Z,24.67
2022-10-02T11:19:02.693Z,25.55
2022-10-02T11:21:46.176Z,68.57
2022-10-02T11:24:28.288Z,46.10
2022-10-02T11:29:49.838Z,95.30
2022-10-02T11:32:55.606Z,41.17
2022-10-02T11:36:03.147Z,48.45
2022-10-02T11:38:51.202Z,43.05
2022-10-02T11:41:48.526Z,29.58
2022-10-02T11:44:36.367Z,45.25
2022-10-02T11:47:34.757Z,90.80
2022-10-02T11:50:30.239Z,70.30
2022-10-02T11:53:20.920Z,65.65
2022-10-02T11:56:12.757Z,72.82
2022-10-02T11:59:02.222Z,131.32
2022-10-02T12:01:34.242Z,39.17
2022-10-02T12:07:12.200Z,54.45
2022-10-02T12:09:55.694Z,95.55
2022-10-02T12:12:58.329Z,42.50
2022-10-02T12:18:45.271Z,27.77
2022-10-02T12:21:41.135Z,40.83
2022-10-02T12:25:16.630Z,78.50
2022-10-02T12:28:16.360Z,21.52
2022-10-02T12:31:13.226Z,31.00
2022-10-02T12:34:28.872Z,80.40
2022-10-02T12:37:08.210Z,47.78
2022-10-02T12:39:46.212Z,55.15
2022-10-02T12:42:43.876Z,39.13
2022-10-02T12:45:33.802Z,42.20
2022-10-02T12:48:34.359Z,105.25
2022-10-02T12:51:34.788Z,147.93
2022-10-02T12:54:19.649Z,160.70
2022-10-02T12:57:39.524Z,81.82
2022-10-02T13:00:17.416Z,63.22
2022-10-02T13:03:06.552Z,98.68
2022-10-02T13:05:52.694Z,69.30
2022-10-02T13:08:43.644Z,99.03
2022-10-02T13:11:28.895Z,67.95
2022-10-02T13:14:17.812Z,25.33
2022-10-02T13:16:50.127Z,38.53
2022-10-02T13:19:50.816Z,34.13
2022-10-02T13:22:41.648Z,47.28
2022-10-02T13:25:26.541Z,35.88
2022-10-02T13:28:08.687Z,41.30
2022-10-02T13:30:50.706Z,68.07
2022-10-02T13:34:14.103Z,27.67
2022-10-02T13:37:14.651Z,106.28
2022-10-02T13:40:03.133Z,46.95
2022-10-02T13:43:04.513Z,59.22
2022-10-02T13:45:54.760Z,70.43
2022-10-02T13:48:34.400Z,50.63
2022-10-02T13:51:33.139Z,48.92
2022-10-02T13:54:18.142Z,57.85
2022-10-02T13:57:11.822Z,29.65
2022-10-02T14:00:24.982Z,47.55
2022-10-02T14:03:08.282Z,45.78
2022-10-02T14:05:58.239Z,37.35
2022-10-02T14:08:41.020Z,34.70
2022-10-02T14:11:35.865Z,40.08
2022-10-02T14:14:32.486Z,25.25
2022-10-02T14:17:16.602Z,29.33
2022-10-02T14:20:20.034Z,41.83
2022-10-02T14:23:04.293Z,21.23
2022-10-02T14:26:17.853Z,47.08
2022-10-02T14:29:50.200Z,42.28
2022-10-02T14:32:30.669Z,43.83
2022-10-02T14:35:20.907Z,47.47
2022-10-02T14:38:09.111Z,30.83
2022-10-02T14:40:58.494Z,38.15
2022-10-02T14:43:47.204Z,41.30
2022-10-02T14:47:03.260Z,40.63
2022-10-02T14:50:02.829Z,52.15
2022-10-02T14:53:01.617Z,43.60
2022-10-02T14:55:39.645Z,27.90
2022-10-02T14:58:46.914Z,30.85
2022-10-02T15:01:24.269Z,34.40
2022-10-02T15:04:14.910Z,37.50
2022-10-02T15:07:16.488Z,34.92
2022-10-02T15:10:03.742Z,34.90
2022-10-02T15:13:17.769Z,38.63
2022-10-02T15:16:17.729Z,33.90
2022-10-02T15:18:56.911Z,26.95
2022-10-02T15:21:48.680Z,38.15
2022-10-02T15:24:44.636Z,36.33
2022-10-02T15:27:40.236Z,37.17
2022-10-02T15:30:21.905Z,37.65
2022-10-02T15:32:57.945Z,43.13
2022-10-02T15:35:32.655Z,39.22
2022-10-02T15:38:30.587Z,49.03
2022-10-02T15:41:14.315Z,38.40
2022-10-02T15:44:26.479Z,49.05
2022-10-02T15:47:36.833Z,43.13
2022-10-02T15:50:50.118Z,45.08
2022-10-02T15:53:57.426Z,100.88
2022-10-02T15:56:52.753Z,102.20
2022-10-02T15:59:31.131Z,54.35
2022-10-02T16:02:32.388Z,55.15
2022-10-02T16:05:15.035Z,38.17
2022-10-02T16:08:10.071Z,45.35
2022-10-02T16:10:56.105Z,58.92
2022-10-02T16:13:43.598Z,58.38
2022-10-02T16:16:21.180Z,60.63
2022-10-02T16:19:10.176Z,59.53
2022-10-02T16:22:17.805Z,46.60
2022-10-02T16:24:53.567Z,55.83
2022-10-02T16:27:33.668Z,63.38
2022-10-02T16:30:36.295Z,52.83
2022-10-02T16:33:15.880Z,62.53
2022-10-02T16:36:31.120Z,70.53
2022-10-02T16:39:20.391Z,83.55
2022-10-02T16:42:15.908Z,121.53
2022-10-02T16:45:14.063Z,125.65
2022-10-02T16:47:59.952Z,104.63
2022-10-02T16:51:07.984Z,97.82
2022-10-02T16:53:43.303Z,126.97
2022-10-02T16:56:35.985Z,112.95
2022-10-02T17:02:13.089Z,114.75
2022-10-02T17:04:59.507Z,142.00
2022-10-02T17:07:44.434Z,147.45
2022-10-02T17:10:35.073Z,147.38
2022-10-02T17:13:15.520Z,151.40
2022-10-02T17:15:57.649Z,133.93
2022-10-02T17:18:47.096Z,158.52
2022-10-02T17:21:25.517Z,144.07
2022-10-02T17:23:59.880Z,114.00
2022-10-02T17:26:50.788Z,154.45
2022-10-02T17:29:43.553Z,114.30
2022-10-02T17:32:13.060Z,116.85
2022-10-02T17:34:51.811Z,106.32
2022-10-02T17:37:51.641Z,111.88
2022-10-02T17:40:29.445Z,107.82
2022-10-02T17:43:12.898Z,102.95
2022-10-02T17:46:04.250Z,88.57
2022-10-02T17:49:16.208Z,92.47
2022-10-02T17:51:59.238Z,94.97
2022-10-02T17:55:24.681Z,72.05
2022-10-02T17:58:20.800Z,70.35
2022-10-02T18:01:34.713Z,51.13
2022-10-02T18:04:33.282Z,54.42
2022-10-02T18:07:22.604Z,43.00
2022-10-02T18:10:04.651Z,53.90
2022-10-02T18:12:52.838Z,57.85
2022-10-02T18:15:30.899Z,60.42
2022-10-02T18:18:32.306Z,66.90
2022-10-02T18:21:49.783Z,51.90
2022-10-02T18:24:45.102Z,58.55
2022-10-02T18:27:45.083Z,59.05
2022-10-02T18:30:21.398Z,58.13
2022-10-02T18:33:03.307Z,56.65
2022-10-02T18:35:48.707Z,98.40
2022-10-02T18:38:27.433Z,69.78
2022-10-02T18:41:37.301Z,60.88
2022-10-02T18:44:44.467Z,58.47
2022-10-02T18:47:37.183Z,57.55
2022-10-02T18:50:24.400Z,52.88
2022-10-02T18:53:16.902Z,46.70
2022-10-02T18:55:49.483Z,46.38
2022-10-02T18:58:33.685Z,56.90
2022-10-02T19:01:14.607Z,47.15
2022-10-02T19:04:05.371Z,53.45
2022-10-02T19:06:54.721Z,47.47
2022-10-02T19:09:29.358Z,63.58
2022-10-02T19:12:13.551Z,46.70
2022-10-02T19:14:48.825Z,51.72
2022-10-02T19:17:25.616Z,45.40
2022-10-02T19:19:56.812Z,52.03
2022-10-02T19:22:39.529Z,62.83
2022-10-02T19:25:21.360Z,51.65
2022-10-02T19:27:58.364Z,53.00
2022-10-02T19:30:31.352Z,43.47
2022-10-02T19:33:10.358Z,58.20
2022-10-02T19:35:45.428Z,47.00
2022-10-02T19:38:34.023Z,49.78
2022-10-02T19:41:10.919Z,52.40
2022-10-02T19:43:58.875Z,66.65
2022-10-02T19:46:56.045Z,56.78
2022-10-02T19:49:31.421Z,46.10
2022-10-02T19:52:00.485Z,56.05
2022-10-02T19:54:38.894Z,47.08
2022-10-02T19:57:17.352Z,52.17
2022-10-02T19:59:53.311Z,35.45
2022-10-02T20:02:42.313Z,46.45
2022-10-02T20:05:22.513Z,53.58
2022-10-02T20:07:57.065Z,52.30
2022-10-02T20:11:01.141Z,70.45
2022-10-02T20:13:51.277Z,54.90
2022-10-02T20:16:44.555Z,73.45
2022-10-02T20:19:46.246Z,57.08
2022-10-02T20:22:18.815Z,54.33
2022-10-02T20:25:09.842Z,59.78
2022-10-02T20:27:39.049Z,56.40
2022-10-02T20:30:18.074Z,64.05
2022-10-02T20:32:53.808Z,57.47
2022-10-02T20:35:36.001Z,63.10
2022-10-02T20:38:12.239Z,65.93
2022-10-02T20:40:52.726Z,52.28
2022-10-02T20:43:33.815Z,57.83
2022-10-02T20:46:20.869Z,59.55
2022-10-02T20:49:09.433Z,60.67
2022-10-02T20:52:14.839Z,66.60
2022-10-02T20:54:55.277Z,55.08
2022-10-02T20:58:07.010Z,73.95
2022-10-02T21:01:13.880Z,94.03
2022-10-02T21:04:01.045Z,153.25
2022-10-02T21:06:54.864Z,149.80
2022-10-02T21:09:35.737Z,93.43
2022-10-02T21:12:20.108Z,71.13
2022-10-02T21:14:54.520Z,76.18
2022-10-02T21:17:47.965Z,73.25
2022-10-02T21:20:51.959Z,77.97
2022-10-02T21:23:33.355Z,68.93
2022-10-02T21:26:14.963Z,66.65
2022-10-02T21:28:47.160Z,76.80
2022-10-02T21:31:28.647Z,68.63
2022-10-02T21:34:10.311Z,71.00
2022-10-02T21:37:23.277Z,58.30
2022-10-02T21:40:30.070Z,74.00
2022-10-02T21:43:18.677Z,58.05
2022-10-02T21:46:09.369Z,75.32
2022-10-02T21:49:21.063Z,73.35
2022-10-02T21:52:12.487Z,80.72
2022-10-02T21:55:03.927Z,76.20
2022-10-02T21:57:43.631Z,82.15
2022-10-02T22:00:38.179Z,87.68
2022-10-02T22:03:11.432Z,69.40
2022-10-02T22:05:40.660Z,82.50
2022-10-02T22:08:22.195Z,64.70
2022-10-02T22:10:56.385Z,82.73
2022-10-02T22:13:38.286Z,86.30
2022-10-02T22:16:35.574Z,108.20
2022-10-02T22:19:27.607Z,95.30
2022-10-02T22:22:14.812Z,85.57
2022-10-02T22:25:05.419Z,87.60
2022-10-02T22:27:40.606Z,84.40
2022-10-02T22:30:23.926Z,91.65
2022-10-02T22:33:17.661Z,82.22
2022-10-02T22:35:56.603Z,82.82
2022-10-02T22:38:37.310Z,74.85
2022-10-02T22:41:34.193Z,84.20
2022-10-02T22:44:26.792Z,92.13
2022-10-02T22:47:13.251Z,89.20
2022-10-02T22:49:52.133Z,85.18
2022-10-02T22:52:30.401Z,82.38
2022-10-02T22:55:15.866Z,71.32
2022-10-02T22:57:59.790Z,74.00
2022-10-02T23:00:52.127Z,74.97
2022-10-02T23:03:47.560Z,72.00
2022-10-02T23:06:31.480Z,72.45
2022-10-02T23:09:00.494Z,60.33
2022-10-02T23:11:40.431Z,59.97
2022-10-02T23:14:21.723Z,69.30
2022-10-02T23:17:01.872Z,60.65
2022-10-02T23:19:43.741Z,65.80
2022-10-02T23:22:23.590Z,73.63
2022-10-02T23:25:01.402Z,58.33
2022-10-02T23:27:48.768Z,73.65
2022-10-02T23:30:23.189Z,52.58
2022-10-02T23:33:18.416Z,76.40
2022-10-02T23:36:02.003Z,60.33
2022-10-02T23:39:13.518Z,65.72
2022-10-02T23:41:56.383Z,72.60
2022-10-02T23:44:58.828Z,74.90
2022-10-02T23:47:45.971Z,73.07
2022-10-02T23:50:42.297Z,68.93
2022-10-02T23:53:38.976Z,63.03
2022-10-02T23:56:41.386Z,62.70
2022-10-02T23:59:27.868Z,66.60
